French Village, Missouri
Current Conditions -  °F | °C
As of 7:15 PM on Saturday 22 Nov 2014 (Local Time) from KFAM Reporting Station
Scattered Clouds Scattered Clouds  
Wind Chill: 52°   Ceiling: Unl
Heat Index: 52°   Visibility: 10mi
Dew Point: 48°   Wind: 15mph
Humidity: 88%   Direction: 140°SE
Pressure: 29.97"   Gusts: NA
Location:  37.97°N, 90.39°W
Report Text: KFAM 230115Z AUTO 14013KT 10SM SCT095 11/09 A2997 RMK AO1
Loading
Personal Weather Stations






























Interactive Weather Map New forecast layout! Learn more

10-Day Weather Forecast

Advertisements
Track Severe Weather on mobile